createdAt,value
2023-01-15T00:02:19.533Z,99079.84
2023-01-15T00:05:11.101Z,99075.03
2023-01-15T00:07:53.510Z,99081.00
2023-01-15T00:10:43.042Z,99079.38
2023-01-15T00:13:26.443Z,99084.78
2023-01-15T00:16:18.119Z,99087.56
2023-01-15T00:19:09.271Z,99087.81
2023-01-15T00:21:58.081Z,99083.25
2023-01-15T00:24:58.896Z,99082.25
2023-01-15T00:27:48.209Z,99080.56
2023-01-15T00:30:30.473Z,99081.06
2023-01-15T00:33:19.169Z,99080.94
2023-01-15T00:36:01.518Z,99084.34
2023-01-15T00:38:50.086Z,99083.69
2023-01-15T00:41:38.480Z,99081.34
2023-01-15T00:44:20.094Z,99078.88
2023-01-15T00:47:02.446Z,99089.09
2023-01-15T00:49:51.068Z,99087.75
2023-01-15T00:52:33.662Z,99098.03
2023-01-15T00:55:23.200Z,99097.66
2023-01-15T00:58:12.151Z,99106.44
2023-01-15T01:00:54.474Z,99109.56
2023-01-15T01:03:43.188Z,99114.41
2023-01-15T01:06:25.562Z,99111.97
2023-01-15T01:09:14.122Z,99117.03
2023-01-15T01:12:05.030Z,99124.78
2023-01-15T01:14:47.327Z,99122.59
2023-01-15T01:17:36.151Z,99131.22
2023-01-15T01:20:20.060Z,99130.94
2023-01-15T01:23:09.113Z,99127.25
2023-01-15T01:25:51.448Z,99133.94
2023-01-15T01:28:40.181Z,99127.47
2023-01-15T01:31:23.236Z,99137.59
2023-01-15T01:34:14.227Z,99132.06
2023-01-15T01:37:04.163Z,99146.16
2023-01-15T01:39:46.434Z,99146.63
2023-01-15T01:42:35.038Z,99140.97
2023-01-15T01:45:41.050Z,99154.38
2023-01-15T01:48:30.141Z,99155.53
2023-01-15T01:51:19.159Z,99152.94
2023-01-15T01:54:03.234Z,99156.84
2023-01-15T01:56:52.283Z,99151.34
2023-01-15T01:59:41.466Z,99149.78
2023-01-15T02:02:28.209Z,99152.47
2023-01-15T02:05:18.245Z,99149.72
2023-01-15T02:08:03.182Z,99148.94
2023-01-15T02:10:54.641Z,99151.00
2023-01-15T02:14:00.137Z,99157.91
2023-01-15T02:17:11.377Z,99157.19
2023-01-15T02:20:19.131Z,99158.03
2023-01-15T02:23:43.147Z,99155.16
2023-01-15T02:26:46.964Z,99149.66
2023-01-15T02:29:47.039Z,99150.84
2023-01-15T02:32:51.387Z,99162.28
2023-01-15T02:35:43.034Z,99168.03
2023-01-15T02:38:34.533Z,99164.84
2023-01-15T02:41:33.132Z,99166.59
2023-01-15T02:44:28.408Z,99167.25
2023-01-15T02:47:13.030Z,99179.22
2023-01-15T02:49:59.126Z,99168.72
2023-01-15T02:53:02.087Z,99173.22
2023-01-15T02:55:56.440Z,99176.28
2023-01-15T02:58:48.125Z,99185.84
2023-01-15T03:01:38.321Z,99189.50
2023-01-15T03:04:56.084Z,99194.50
2023-01-15T03:07:59.497Z,99195.31
2023-01-15T03:10:53.037Z,99193.06
2023-01-15T03:13:48.057Z,99197.50
2023-01-15T03:16:52.094Z,99200.34
2023-01-15T03:19:43.220Z,99201.38
2023-01-15T03:22:38.249Z,99193.47
2023-01-15T03:25:34.694Z,99210.47
2023-01-15T03:28:20.061Z,99207.19
2023-01-15T03:31:09.441Z,99208.88
2023-01-15T03:33:52.086Z,99216.19
2023-01-15T03:36:42.442Z,99218.56
2023-01-15T03:39:27.124Z,99216.69
2023-01-15T03:42:55.059Z,99214.66
2023-01-15T03:45:48.190Z,99210.91
2023-01-15T03:48:52.347Z,99220.72
2023-01-15T03:51:58.118Z,99224.03
2023-01-15T03:54:46.574Z,99225.09
2023-01-15T03:58:01.149Z,99224.75
2023-01-15T04:00:53.560Z,99236.69
2023-01-15T04:03:44.099Z,99243.03
2023-01-15T04:06:30.548Z,99238.22
2023-01-15T04:09:22.024Z,99231.56
2023-01-15T04:12:14.992Z,99252.38
2023-01-15T04:14:57.296Z,99247.91
2023-01-15T04:17:46.021Z,99252.16
2023-01-15T04:20:36.341Z,99249.13
2023-01-15T04:23:20.103Z,99252.22
2023-01-15T04:26:08.845Z,99246.34
2023-01-15T04:28:52.007Z,99251.41
2023-01-15T04:31:34.628Z,99252.91
2023-01-15T04:34:22.944Z,99254.78
2023-01-15T04:37:05.481Z,99250.47
2023-01-15T04:39:53.975Z,99250.72
2023-01-15T04:43:01.712Z,99258.84
2023-01-15T04:45:44.029Z,99260.56
2023-01-15T04:48:26.955Z,99252.69
2023-01-15T04:51:20.140Z,99257.38
2023-01-15T04:54:12.103Z,99259.66
2023-01-15T04:56:57.401Z,99248.56
2023-01-15T04:59:46.171Z,99241.56
2023-01-15T05:02:28.451Z,99247.75
2023-01-15T05:05:17.016Z,99253.00
2023-01-15T05:08:06.152Z,99245.28
2023-01-15T05:10:54.592Z,99242.00
2023-01-15T05:13:38.203Z,99241.72
2023-01-15T05:16:30.958Z,99249.13
2023-01-15T05:19:17.127Z,99234.41
2023-01-15T05:22:08.109Z,99234.53
2023-01-15T05:24:58.137Z,99228.53
2023-01-15T05:27:41.908Z,99224.72
2023-01-15T05:30:31.120Z,99224.41
2023-01-15T05:33:19.457Z,99225.84
2023-01-15T05:36:02.102Z,99224.47
2023-01-15T05:38:50.437Z,99224.22
2023-01-15T05:41:51.227Z,99222.16
2023-01-15T05:44:40.408Z,99221.22
2023-01-15T05:47:23.070Z,99213.06
2023-01-15T05:50:12.456Z,99221.81
2023-01-15T05:52:55.062Z,99208.81
2023-01-15T05:55:37.315Z,99212.44
2023-01-15T05:58:25.979Z,99212.06
2023-01-15T06:01:17.078Z,99208.47
2023-01-15T06:03:59.467Z,99212.16
2023-01-15T06:06:49.094Z,99212.38
2023-01-15T06:09:39.098Z,99212.88
2023-01-15T06:12:27.435Z,99204.38
2023-01-15T06:15:09.015Z,99201.22
2023-01-15T06:17:59.154Z,99198.56
2023-01-15T06:20:44.450Z,99190.78
2023-01-15T06:23:33.019Z,99190.03
2023-01-15T06:26:21.391Z,99179.78
2023-01-15T06:29:10.166Z,99177.44
2023-01-15T06:31:52.342Z,99171.38
2023-01-15T06:34:41.114Z,99165.72
2023-01-15T06:37:23.307Z,99164.38
2023-01-15T06:40:12.088Z,99150.63
2023-01-15T06:43:26.014Z,99149.25
2023-01-15T06:46:36.105Z,99145.44
2023-01-15T06:49:18.424Z,99132.84
2023-01-15T06:52:07.038Z,99132.19
2023-01-15T06:54:52.747Z,99132.19
2023-01-15T06:57:41.995Z,99123.78
2023-01-15T07:00:24.442Z,99124.72
2023-01-15T07:03:14.057Z,99113.78
2023-01-15T07:05:56.573Z,99114.00
2023-01-15T07:08:44.959Z,99106.94
2023-01-15T07:11:27.422Z,99112.94
2023-01-15T07:14:15.947Z,99105.44
2023-01-15T07:17:00.413Z,99097.19
2023-01-15T07:19:48.984Z,99113.41
2023-01-15T07:22:31.441Z,99095.44
2023-01-15T07:25:20.372Z,99094.84
2023-01-15T07:28:02.696Z,99087.41
2023-01-15T07:30:51.417Z,99087.19
2023-01-15T07:33:33.466Z,99082.47
2023-01-15T07:36:22.026Z,99078.34
2023-01-15T07:39:04.428Z,99070.13
2023-01-15T07:42:11.118Z,99072.84
2023-01-15T07:45:12.898Z,99077.84
2023-01-15T07:48:21.101Z,99078.22
2023-01-15T07:51:03.451Z,99069.81
2023-01-15T07:53:52.093Z,99062.56
2023-01-15T07:56:34.398Z,99053.06
2023-01-15T07:59:23.112Z,99053.59
2023-01-15T08:02:05.362Z,99048.94
2023-01-15T08:04:56.037Z,99039.09
2023-01-15T08:07:44.985Z,99042.13
2023-01-15T08:10:27.306Z,99033.94
2023-01-15T08:13:33.990Z,99022.41
2023-01-15T08:16:16.589Z,99025.41
2023-01-15T08:19:05.114Z,99023.66
2023-01-15T08:21:47.241Z,99012.22
2023-01-15T08:24:36.027Z,99022.25
2023-01-15T08:27:25.412Z,99012.84
2023-01-15T08:30:07.035Z,99012.38
2023-01-15T08:32:56.536Z,99003.50
2023-01-15T08:35:39.090Z,98992.47
2023-01-15T08:38:27.331Z,98992.03
2023-01-15T08:41:21.981Z,98983.56
2023-01-15T08:44:04.596Z,98985.22
2023-01-15T08:46:53.030Z,98973.97
2023-01-15T08:49:35.237Z,98972.13
2023-01-15T08:52:24.089Z,98966.84
2023-01-15T08:55:14.001Z,98969.19
2023-01-15T08:58:03.050Z,98970.38
2023-01-15T09:00:45.793Z,98960.00
2023-01-15T09:03:35.115Z,98971.44
2023-01-15T09:06:23.380Z,98958.34
2023-01-15T09:09:08.135Z,98958.13
2023-01-15T09:11:50.323Z,98950.91
2023-01-15T09:14:59.505Z,98941.31
2023-01-15T09:17:42.052Z,98934.22
2023-01-15T09:20:31.922Z,98941.78
2023-01-15T09:23:22.342Z,98936.56
2023-01-15T09:26:07.106Z,98932.34
2023-01-15T09:28:55.741Z,98928.53
2023-01-15T09:31:39.529Z,98937.31
2023-01-15T09:34:21.286Z,98924.75
2023-01-15T09:37:10.080Z,98923.59
2023-01-15T09:39:51.922Z,98916.41
2023-01-15T09:43:17.141Z,98911.88
2023-01-15T09:46:14.864Z,98914.97
2023-01-15T09:49:40.094Z,98907.03
2023-01-15T09:52:51.016Z,98908.63
2023-01-15T09:55:50.177Z,98903.28
2023-01-15T09:58:47.404Z,98892.03
2023-01-15T10:01:36.989Z,98899.56
2023-01-15T10:04:45.324Z,98908.28
2023-01-15T10:07:36.091Z,98904.16
2023-01-15T10:10:24.296Z,98897.56
2023-01-15T10:13:22.031Z,98891.19
2023-01-15T10:16:11.332Z,98897.66
2023-01-15T10:18:54.189Z,98894.28
2023-01-15T10:21:55.480Z,98891.03
2023-01-15T10:24:54.137Z,98893.66
2023-01-15T10:27:37.666Z,98872.41
2023-01-15T10:30:45.156Z,98877.22
2023-01-15T10:34:01.456Z,98875.38
2023-01-15T10:37:01.974Z,98867.81
2023-01-15T10:40:13.516Z,98873.00
2023-01-15T10:43:33.126Z,98865.75
2023-01-15T10:46:40.074Z,98870.06
2023-01-15T10:49:29.117Z,98863.81
2023-01-15T10:52:21.493Z,98868.53
2023-01-15T10:55:39.914Z,98865.63
2023-01-15T10:58:48.005Z,98867.03
2023-01-15T11:01:36.977Z,98864.16
2023-01-15T11:04:20.336Z,98856.00
2023-01-15T11:07:10.959Z,98859.84
2023-01-15T11:09:53.506Z,98860.31
2023-01-15T11:13:01.968Z,98858.31
2023-01-15T11:16:02.679Z,98854.16
2023-01-15T11:19:12.087Z,98851.41
2023-01-15T11:21:55.332Z,98849.78
2023-01-15T11:25:01.072Z,98859.28
2023-01-15T11:27:51.966Z,98856.34
2023-01-15T11:30:46.146Z,98853.25
2023-01-15T11:33:33.347Z,98847.53
2023-01-15T11:36:31.926Z,98853.41
2023-01-15T11:39:29.207Z,98856.97
2023-01-15T11:42:42.976Z,98852.34
2023-01-15T11:45:54.961Z,98853.78
2023-01-15T11:49:14.094Z,98851.56
2023-01-15T11:52:04.059Z,98852.66
2023-01-15T11:54:57.417Z,98859.34
2023-01-15T11:57:43.049Z,98854.88
2023-01-15T12:00:38.399Z,98856.72
2023-01-15T12:03:27.094Z,98858.78
2023-01-15T12:06:20.354Z,98860.94
2023-01-15T12:09:25.015Z,98865.94
2023-01-15T12:12:25.450Z,98865.41
2023-01-15T12:15:27.010Z,98865.50
2023-01-15T12:18:34.099Z,98872.81
2023-01-15T12:21:50.422Z,98872.16
2023-01-15T12:24:53.107Z,98879.00
2023-01-15T12:27:55.314Z,98876.16
2023-01-15T12:31:05.135Z,98873.56
2023-01-15T12:34:03.056Z,98881.75
2023-01-15T12:36:58.627Z,98877.38
2023-01-15T12:39:55.944Z,98875.75
2023-01-15T12:43:10.064Z,98875.78
2023-01-15T12:46:05.076Z,98883.97
2023-01-15T12:49:05.018Z,98890.06
2023-01-15T12:52:08.290Z,98887.13
2023-01-15T12:55:14.039Z,98886.72
2023-01-15T12:58:01.105Z,98888.72
2023-01-15T13:00:56.044Z,98897.53
2023-01-15T13:03:57.148Z,98896.72
2023-01-15T13:06:41.491Z,98900.19
2023-01-15T13:09:52.982Z,98904.13
2023-01-15T13:12:38.371Z,98910.19
2023-01-15T13:15:33.970Z,98914.22
2023-01-15T13:18:44.016Z,98915.53
2023-01-15T13:21:28.235Z,98921.00
2023-01-15T13:24:31.113Z,98925.75
2023-01-15T13:27:45.641Z,98927.50
2023-01-15T13:31:05.012Z,98927.09
2023-01-15T13:34:01.371Z,98934.75
2023-01-15T13:36:52.016Z,98932.78
2023-01-15T13:39:51.391Z,98929.94
2023-01-15T13:42:46.009Z,98937.78
2023-01-15T13:45:34.383Z,98941.28
2023-01-15T13:48:32.025Z,98941.28
2023-01-15T13:51:44.326Z,98945.47
2023-01-15T13:54:29.917Z,98947.34
2023-01-15T13:57:34.099Z,98943.66
2023-01-15T14:00:41.011Z,98959.19
2023-01-15T14:04:07.434Z,98958.81
2023-01-15T14:07:07.832Z,98969.97
2023-01-15T14:09:50.494Z,98965.56
2023-01-15T14:13:07.785Z,98970.97
2023-01-15T14:15:56.380Z,98965.94
2023-01-15T14:18:52.979Z,98976.66
2023-01-15T14:22:13.341Z,98972.38
2023-01-15T14:25:11.980Z,98971.19
2023-01-15T14:28:23.463Z,98972.81
2023-01-15T14:31:30.074Z,98977.09
2023-01-15T14:34:33.066Z,98984.41
2023-01-15T14:37:21.306Z,98985.78
2023-01-15T14:40:12.894Z,98988.69
2023-01-15T14:43:13.921Z,98994.81
2023-01-15T14:45:57.137Z,98987.19
2023-01-15T14:48:46.007Z,98996.38
2023-01-15T14:51:31.941Z,99000.34
2023-01-15T14:54:26.037Z,99007.06
2023-01-15T14:57:10.806Z,99002.06
2023-01-15T15:00:12.975Z,99020.25
2023-01-15T15:03:02.008Z,99011.75
2023-01-15T15:05:52.022Z,99019.03
2023-01-15T15:08:43.305Z,99018.97
2023-01-15T15:11:55.087Z,99023.44
2023-01-15T15:14:48.734Z,99028.81
2023-01-15T15:17:53.035Z,99024.88
2023-01-15T15:20:56.273Z,99036.41
2023-01-15T15:23:57.030Z,99048.09
2023-01-15T15:26:40.846Z,99041.97
2023-01-15T15:29:32.004Z,99050.28
2023-01-15T15:32:28.336Z,99037.00
2023-01-15T15:35:10.049Z,99050.88
2023-01-15T15:37:52.541Z,99058.63
2023-01-15T15:40:49.042Z,99059.03
2023-01-15T15:44:25.945Z,99055.19
2023-01-15T15:47:39.841Z,99060.94
2023-01-15T15:50:43.850Z,99067.78
2023-01-15T15:53:25.876Z,99077.25
2023-01-15T15:56:15.951Z,99077.78
2023-01-15T15:59:00.527Z,99076.16
2023-01-15T16:01:53.159Z,99072.91
2023-01-15T16:04:41.840Z,99076.22
2023-01-15T16:07:41.834Z,99077.66
2023-01-15T16:10:30.738Z,99084.50
2023-01-15T16:13:26.038Z,99082.38
2023-01-15T16:16:10.254Z,99078.22
2023-01-15T16:19:02.856Z,99079.66
2023-01-15T16:21:46.241Z,99081.78
2023-01-15T16:24:40.851Z,99083.66
2023-01-15T16:27:26.394Z,99081.78
2023-01-15T16:30:14.938Z,99078.09
2023-01-15T16:33:09.756Z,99089.72
2023-01-15T16:35:51.895Z,99083.97
2023-01-15T16:38:47.312Z,99083.44
2023-01-15T16:41:37.046Z,99085.25
2023-01-15T16:44:45.211Z,99087.44
2023-01-15T16:47:36.907Z,99089.69
2023-01-15T16:50:32.457Z,99093.00
2023-01-15T16:53:34.931Z,99093.41
2023-01-15T16:56:44.482Z,99099.59
2023-01-15T16:59:28.069Z,99089.19
2023-01-15T17:02:30.789Z,99086.13
2023-01-15T17:05:28.995Z,99091.03
2023-01-15T17:08:33.671Z,99087.25
2023-01-15T17:11:37.972Z,99092.31
2023-01-15T17:14:26.334Z,99089.72
2023-01-15T17:17:33.868Z,99100.72
2023-01-15T17:20:19.140Z,99093.69
2023-01-15T17:23:08.955Z,99099.59
2023-01-15T17:25:57.411Z,99097.16
2023-01-15T17:28:40.087Z,99099.63
2023-01-15T17:31:34.358Z,99106.63
2023-01-15T17:34:19.265Z,99107.50
2023-01-15T17:37:08.428Z,99113.00
2023-01-15T17:39:51.132Z,99103.69
2023-01-15T17:42:45.794Z,99100.16
2023-01-15T17:45:37.934Z,99107.88
2023-01-15T17:48:20.202Z,99106.78
2023-01-15T17:51:10.030Z,99105.97
2023-01-15T17:53:52.274Z,99106.72
2023-01-15T17:56:58.972Z,99113.78
2023-01-15T17:59:59.827Z,99114.25
2023-01-15T18:03:27.016Z,99103.16
2023-01-15T18:06:09.424Z,99111.69
2023-01-15T18:09:05.044Z,99107.91
2023-01-15T18:11:47.686Z,99111.56
2023-01-15T18:14:37.094Z,99121.34
2023-01-15T18:17:19.475Z,99124.16
2023-01-15T18:20:08.104Z,99122.38
2023-01-15T18:22:50.352Z,99119.56
2023-01-15T18:25:39.089Z,99124.81
2023-01-15T18:28:22.380Z,99124.00
2023-01-15T18:31:11.925Z,99125.00
2023-01-15T18:34:00.997Z,99121.97
2023-01-15T18:36:50.365Z,99124.81
2023-01-15T18:39:32.984Z,99119.50
2023-01-15T18:42:47.033Z,99116.03
2023-01-15T18:45:47.349Z,99117.91
2023-01-15T18:48:35.837Z,99111.28
2023-01-15T18:51:24.990Z,99117.69
2023-01-15T18:54:07.458Z,99110.84
2023-01-15T18:56:56.003Z,99120.22
2023-01-15T18:59:38.321Z,99119.75
2023-01-15T19:02:29.035Z,99120.06
2023-01-15T19:05:14.375Z,99114.16
2023-01-15T19:08:02.960Z,99115.13
2023-01-15T19:10:52.157Z,99117.31
2023-01-15T19:13:40.543Z,99114.34
2023-01-15T19:16:41.942Z,99108.88
2023-01-15T19:19:30.426Z,99112.00
2023-01-15T19:22:31.101Z,99106.78
2023-01-15T19:25:21.737Z,99104.94
2023-01-15T19:28:05.969Z,99105.28
2023-01-15T19:31:21.734Z,99102.63
2023-01-15T19:34:32.591Z,99089.28
2023-01-15T19:37:21.534Z,99106.09
2023-01-15T19:40:03.018Z,99096.03
2023-01-15T19:43:16.829Z,99096.69
2023-01-15T19:46:23.904Z,99094.72
2023-01-15T19:49:31.984Z,99101.63
2023-01-15T19:52:38.800Z,99089.28
2023-01-15T19:55:22.432Z,99091.44
2023-01-15T19:58:13.849Z,99096.38
2023-01-15T20:00:57.484Z,99096.22
2023-01-15T20:03:45.805Z,99097.84
2023-01-15T20:06:28.329Z,99099.34
2023-01-15T20:09:16.934Z,99096.22
2023-01-15T20:12:17.910Z,99094.91
2023-01-15T20:15:07.031Z,99095.41
2023-01-15T20:17:49.195Z,99103.47
2023-01-15T20:20:37.846Z,99104.13
2023-01-15T20:23:26.799Z,99105.28
2023-01-15T20:26:11.672Z,99092.09
2023-01-15T20:29:00.899Z,99091.78
2023-01-15T20:31:49.293Z,99087.00
2023-01-15T20:34:30.785Z,99091.28
2023-01-15T20:37:13.041Z,99085.53
2023-01-15T20:40:01.931Z,99084.53
2023-01-15T20:43:15.766Z,99085.00
2023-01-15T20:46:18.832Z,99086.50
2023-01-15T20:49:19.681Z,99088.84
2023-01-15T20:52:08.959Z,99087.19
2023-01-15T20:54:51.588Z,99080.91
2023-01-15T20:57:45.877Z,99087.84
2023-01-15T21:00:29.316Z,99090.13
2023-01-15T21:03:20.113Z,99092.91
2023-01-15T21:06:06.027Z,99094.03
2023-01-15T21:08:54.858Z,99094.50
2023-01-15T21:11:37.235Z,99087.94
2023-01-15T21:14:25.934Z,99096.19
2023-01-15T21:17:08.288Z,99087.63
2023-01-15T21:19:56.832Z,99088.25
2023-01-15T21:22:39.227Z,99087.78
2023-01-15T21:25:27.920Z,99084.19
2023-01-15T21:28:10.298Z,99084.84
2023-01-15T21:30:58.855Z,99080.50
2023-01-15T21:33:41.374Z,99080.16
2023-01-15T21:36:30.032Z,99081.69
2023-01-15T21:39:12.188Z,99079.50
2023-01-15T21:42:18.928Z,99081.19
2023-01-15T21:45:14.780Z,99085.75
2023-01-15T21:48:03.923Z,99084.09
2023-01-15T21:50:46.263Z,99080.81
2023-01-15T21:53:34.998Z,99078.00
2023-01-15T21:56:17.342Z,99080.00
2023-01-15T21:59:05.975Z,99083.25
2023-01-15T22:01:55.911Z,99070.09
2023-01-15T22:04:44.865Z,99066.31
2023-01-15T22:07:27.205Z,99070.06
2023-01-15T22:10:15.964Z,99075.34
2023-01-15T22:13:04.841Z,99068.97
2023-01-15T22:16:01.916Z,99071.63
2023-01-15T22:18:44.115Z,99068.00
2023-01-15T22:21:32.914Z,99069.75
2023-01-15T22:24:21.819Z,99075.19
2023-01-15T22:27:13.945Z,99067.91
2023-01-15T22:29:56.140Z,99074.91
2023-01-15T22:32:44.942Z,99069.38
2023-01-15T22:35:27.990Z,99065.41
2023-01-15T22:38:16.901Z,99070.75
2023-01-15T22:41:05.901Z,99072.78
2023-01-15T22:43:54.855Z,99074.66
2023-01-15T22:46:37.177Z,99078.69
2023-01-15T22:49:25.769Z,99074.47
2023-01-15T22:52:14.971Z,99082.13
2023-01-15T22:55:04.184Z,99073.25
2023-01-15T22:57:45.913Z,99071.13
2023-01-15T23:00:34.198Z,99072.94
2023-01-15T23:03:16.950Z,99074.25
2023-01-15T23:06:10.175Z,99070.38
2023-01-15T23:08:52.808Z,99061.19
2023-01-15T23:11:35.462Z,99063.44
2023-01-15T23:14:25.793Z,99070.41
2023-01-15T23:17:08.077Z,99077.97
2023-01-15T23:19:56.794Z,99071.50
2023-01-15T23:22:39.300Z,99074.34
2023-01-15T23:25:27.851Z,99073.31
2023-01-15T23:28:10.272Z,99079.34
2023-01-15T23:30:58.809Z,99073.03
2023-01-15T23:33:41.092Z,99082.81
2023-01-15T23:36:30.891Z,99086.03
2023-01-15T23:39:25.916Z,99081.25
2023-01-15T23:42:26.518Z,99090.16
2023-01-15T23:45:33.800Z,99091.50
2023-01-15T23:48:22.835Z,99099.53
2023-01-15T23:51:11.925Z,99096.63
2023-01-15T23:53:54.111Z,99107.34
2023-01-15T23:56:44.825Z,99103.34
2023-01-15T23:59:28.069Z,99107.88
